Flugplatz Dinkelsbühl-Sinbronn

Für EDND sind keine METAR/TAF Berichte vorhanden.
Es werden die Flugwettermeldungen vom Flugplatz Ansbach Army Heliport in 32 km Entfernung angezeigt.

Prognose für ETEB

vom 19.05. um 07:00 UTC

Zwischen 07:00 UTC und 16:00 UTC

Wind 9 kt aus 130°

Sichtweite 10 km oder mehr

gering bewölkt in 24000 ft


Zwischen 16:00 und 17:00 UTC übergehend zu

Wind 9 kt aus 240°

Sichtweite 10 km oder mehr

gering bewölkt in 4000 ft

aufgebrochene Bewölkung in 9000 ft


Zwischen 21:00 und 22:00 UTC übergehend zu

Wind 9 kt aus 230°

Sichtweite 10 km oder mehr

aufgebrochene Bewölkung in 12000 ft


Am 20.05. zwischen 10:00 und 11:00 UTC übergehend zu

Wind 10 kt aus 240° in Böen 15 kt

Sichtweite 10 km oder mehr

gering bewölkt in 5000 ft

aufgebrochene Bewölkung in 24000 ft

TAF ETEB 190700Z 1907/2013 13009KT 9999 FEW240 QNH3014INS BECMG 1916/1917 24009KT 9999 FEW040 BKN090 QNH3016INS BECMG 1921/1922 23009KT 9999 BKN120 QNH3014INS BECMG 2010/2011 24010G15KT 9999 FEW050 BKN240 QNH3009INS TX28/1915Z TN16/1907Z
Impressum